sensor_id;sensor_type;location;lat;lon;timestamp;P1;durP1;ratioP1;P2;durP2;ratioP2
78402;SDS011;67687;43.508;1.504;2024-02-26T00:00:00;27.52;;;12.82;;
78402;SDS011;67687;43.508;1.504;2024-02-26T00:02:27;17.63;;;9.00;;
78402;SDS011;67687;43.508;1.504;2024-02-26T00:04:53;12.75;;;3.55;;
78402;SDS011;67687;43.508;1.504;2024-02-26T00:07:19;12.40;;;3.72;;
78402;SDS011;67687;43.508;1.504;2024-02-26T00:09:46;11.98;;;4.45;;
78402;SDS011;67687;43.508;1.504;2024-02-26T00:12:12;14.02;;;5.45;;
78402;SDS011;67687;43.508;1.504;2024-02-26T00:14:39;29.30;;;14.43;;
78402;SDS011;67687;43.508;1.504;2024-02-26T00:17:07;11.38;;;4.38;;
78402;SDS011;67687;43.508;1.504;2024-02-26T00:19:35;21.95;;;9.68;;
78402;SDS011;67687;43.508;1.504;2024-02-26T00:22:01;28.90;;;12.98;;
78402;SDS011;67687;43.508;1.504;2024-02-26T00:24:28;11.75;;;5.22;;
78402;SDS011;67687;43.508;1.504;2024-02-26T00:26:54;9.83;;;4.03;;
78402;SDS011;67687;43.508;1.504;2024-02-26T00:29:21;10.02;;;3.10;;
78402;SDS011;67687;43.508;1.504;2024-02-26T00:31:46;59.78;;;28.10;;
78402;SDS011;67687;43.508;1.504;2024-02-26T00:34:14;47.30;;;22.52;;
78402;SDS011;67687;43.508;1.504;2024-02-26T00:36:41;12.27;;;5.00;;
78402;SDS011;67687;43.508;1.504;2024-02-26T00:39:07;24.40;;;11.63;;
78402;SDS011;67687;43.508;1.504;2024-02-26T00:41:37;10.23;;;3.85;;
78402;SDS011;67687;43.508;1.504;2024-02-26T00:44:04;11.20;;;3.28;;
78402;SDS011;67687;43.508;1.504;2024-02-26T00:46:30;9.48;;;2.83;;
78402;SDS011;67687;43.508;1.504;2024-02-26T00:48:57;9.47;;;2.93;;
78402;SDS011;67687;43.508;1.504;2024-02-26T00:51:24;9.65;;;3.17;;
78402;SDS011;67687;43.508;1.504;2024-02-26T00:53:51;10.95;;;3.65;;
78402;SDS011;67687;43.508;1.504;2024-02-26T00:56:17;11.65;;;3.67;;
78402;SDS011;67687;43.508;1.504;2024-02-26T00:58:44;6.45;;;2.50;;
78402;SDS011;67687;43.508;1.504;2024-02-26T01:01:10;5.50;;;2.57;;
78402;SDS011;67687;43.508;1.504;2024-02-26T01:03:37;7.03;;;3.08;;
78402;SDS011;67687;43.508;1.504;2024-02-26T01:06:03;8.05;;;3.20;;
78402;SDS011;67687;43.508;1.504;2024-02-26T01:08:31;7.93;;;3.53;;
78402;SDS011;67687;43.508;1.504;2024-02-26T01:10:58;10.07;;;3.67;;
78402;SDS011;67687;43.508;1.504;2024-02-26T01:13:24;11.50;;;4.30;;
78402;SDS011;67687;43.508;1.504;2024-02-26T01:15:51;10.20;;;3.83;;
78402;SDS011;67687;43.508;1.504;2024-02-26T01:18:17;10.23;;;4.53;;
78402;SDS011;67687;43.508;1.504;2024-02-26T01:20:44;9.80;;;4.35;;
78402;SDS011;67687;43.508;1.504;2024-02-26T01:23:10;12.00;;;4.68;;
78402;SDS011;67687;43.508;1.504;2024-02-26T01:25:38;9.73;;;4.20;;
78402;SDS011;67687;43.508;1.504;2024-02-26T01:28:05;11.80;;;4.72;;
78402;SDS011;67687;43.508;1.504;2024-02-26T01:30:31;11.90;;;5.15;;
78402;SDS011;67687;43.508;1.504;2024-02-26T01:32:58;10.10;;;4.30;;
78402;SDS011;67687;43.508;1.504;2024-02-26T01:35:24;16.88;;;5.85;;
78402;SDS011;67687;43.508;1.504;2024-02-26T01:37:51;14.70;;;4.37;;
78402;SDS011;67687;43.508;1.504;2024-02-26T01:40:18;15.93;;;5.30;;
78402;SDS011;67687;43.508;1.504;2024-02-26T01:42:46;13.43;;;4.10;;
78402;SDS011;67687;43.508;1.504;2024-02-26T01:45:14;9.65;;;2.70;;
78402;SDS011;67687;43.508;1.504;2024-02-26T01:47:46;16.52;;;4.57;;
78402;SDS011;67687;43.508;1.504;2024-02-26T01:50:12;11.73;;;2.97;;
78402;SDS011;67687;43.508;1.504;2024-02-26T01:52:39;16.70;;;4.40;;
78402;SDS011;67687;43.508;1.504;2024-02-26T01:55:05;14.82;;;4.15;;
78402;SDS011;67687;43.508;1.504;2024-02-26T01:57:32;15.63;;;4.03;;
78402;SDS011;67687;43.508;1.504;2024-02-26T02:00:00;8.35;;;1.83;;
78402;SDS011;67687;43.508;1.504;2024-02-26T02:02:27;11.33;;;2.60;;
78402;SDS011;67687;43.508;1.504;2024-02-26T02:04:53;12.20;;;3.13;;
78402;SDS011;67687;43.508;1.504;2024-02-26T02:07:20;9.93;;;2.03;;
78402;SDS011;67687;43.508;1.504;2024-02-26T02:09:47;14.43;;;3.22;;
78402;SDS011;67687;43.508;1.504;2024-02-26T02:12:14;15.88;;;3.33;;
78402;SDS011;67687;43.508;1.504;2024-02-26T02:14:40;14.20;;;2.57;;
78402;SDS011;67687;43.508;1.504;2024-02-26T02:17:08;14.45;;;2.47;;
78402;SDS011;67687;43.508;1.504;2024-02-26T02:19:35;9.55;;;1.58;;
78402;SDS011;67687;43.508;1.504;2024-02-26T02:22:02;13.75;;;2.00;;
78402;SDS011;67687;43.508;1.504;2024-02-26T02:24:29;15.30;;;2.67;;
78402;SDS011;67687;43.508;1.504;2024-02-26T02:26:55;10.10;;;1.90;;
78402;SDS011;67687;43.508;1.504;2024-02-26T02:29:22;13.43;;;2.13;;
78402;SDS011;67687;43.508;1.504;2024-02-26T02:31:49;16.27;;;2.40;;
78402;SDS011;67687;43.508;1.504;2024-02-26T02:34:15;11.65;;;2.00;;
78402;SDS011;67687;43.508;1.504;2024-02-26T02:36:51;10.65;;;2.05;;
78402;SDS011;67687;43.508;1.504;2024-02-26T02:39:19;13.23;;;2.43;;
78402;SDS011;67687;43.508;1.504;2024-02-26T02:41:46;13.25;;;2.78;;
78402;SDS011;67687;43.508;1.504;2024-02-26T02:44:12;16.77;;;3.15;;
78402;SDS011;67687;43.508;1.504;2024-02-26T02:46:39;12.73;;;2.65;;
78402;SDS011;67687;43.508;1.504;2024-02-26T02:49:07;14.13;;;3.00;;
78402;SDS011;67687;43.508;1.504;2024-02-26T02:51:34;11.40;;;2.50;;
78402;SDS011;67687;43.508;1.504;2024-02-26T02:54:00;11.25;;;2.03;;
78402;SDS011;67687;43.508;1.504;2024-02-26T02:56:28;12.20;;;2.35;;
78402;SDS011;67687;43.508;1.504;2024-02-26T02:58:55;13.93;;;2.55;;
78402;SDS011;67687;43.508;1.504;2024-02-26T03:01:21;11.27;;;2.28;;
78402;SDS011;67687;43.508;1.504;2024-02-26T03:03:48;11.90;;;2.20;;
78402;SDS011;67687;43.508;1.504;2024-02-26T03:06:16;11.93;;;2.40;;
78402;SDS011;67687;43.508;1.504;2024-02-26T03:08:42;10.23;;;2.55;;
78402;SDS011;67687;43.508;1.504;2024-02-26T03:11:12;18.13;;;3.80;;
78402;SDS011;67687;43.508;1.504;2024-02-26T03:13:40;15.50;;;4.10;;
78402;SDS011;67687;43.508;1.504;2024-02-26T03:16:07;11.33;;;3.43;;
78402;SDS011;67687;43.508;1.504;2024-02-26T03:18:33;11.98;;;2.25;;
78402;SDS011;67687;43.508;1.504;2024-02-26T03:21:00;11.70;;;2.58;;
78402;SDS011;67687;43.508;1.504;2024-02-26T03:23:26;10.02;;;2.17;;
78402;SDS011;67687;43.508;1.504;2024-02-26T03:25:52;10.07;;;2.15;;
78402;SDS011;67687;43.508;1.504;2024-02-26T03:28:21;10.63;;;2.50;;
78402;SDS011;67687;43.508;1.504;2024-02-26T03:30:48;7.93;;;1.70;;
78402;SDS011;67687;43.508;1.504;2024-02-26T03:33:15;10.80;;;1.65;;
78402;SDS011;67687;43.508;1.504;2024-02-26T03:35:41;7.03;;;1.58;;
78402;SDS011;67687;43.508;1.504;2024-02-26T03:38:08;8.60;;;1.52;;
78402;SDS011;67687;43.508;1.504;2024-02-26T03:40:34;7.80;;;1.30;;
78402;SDS011;67687;43.508;1.504;2024-02-26T03:43:01;7.35;;;1.08;;
78402;SDS011;67687;43.508;1.504;2024-02-26T03:45:27;11.02;;;1.40;;
78402;SDS011;67687;43.508;1.504;2024-02-26T03:47:55;11.30;;;1.23;;
78402;SDS011;67687;43.508;1.504;2024-02-26T03:50:22;10.15;;;1.55;;
78402;SDS011;67687;43.508;1.504;2024-02-26T03:52:48;8.83;;;1.20;;
78402;SDS011;67687;43.508;1.504;2024-02-26T03:55:15;8.00;;;1.08;;
78402;SDS011;67687;43.508;1.504;2024-02-26T03:57:43;7.80;;;1.13;;
78402;SDS011;67687;43.508;1.504;2024-02-26T04:00:10;8.52;;;1.17;;
78402;SDS011;67687;43.508;1.504;2024-02-26T04:02:37;7.05;;;1.15;;
78402;SDS011;67687;43.508;1.504;2024-02-26T04:05:08;6.73;;;0.90;;
78402;SDS011;67687;43.508;1.504;2024-02-26T04:07:35;5.50;;;0.75;;
78402;SDS011;67687;43.508;1.504;2024-02-26T04:10:02;4.43;;;1.02;;
78402;SDS011;67687;43.508;1.504;2024-02-26T04:12:30;5.80;;;1.00;;
78402;SDS011;67687;43.508;1.504;2024-02-26T04:14:56;7.53;;;1.08;;
78402;SDS011;67687;43.508;1.504;2024-02-26T04:17:22;6.50;;;0.97;;
78402;SDS011;67687;43.508;1.504;2024-02-26T04:19:49;10.05;;;1.25;;
78402;SDS011;67687;43.508;1.504;2024-02-26T04:22:17;6.45;;;1.00;;
78402;SDS011;67687;43.508;1.504;2024-02-26T04:24:43;4.93;;;1.20;;
78402;SDS011;67687;43.508;1.504;2024-02-26T04:27:09;8.38;;;1.30;;
78402;SDS011;67687;43.508;1.504;2024-02-26T04:29:36;5.53;;;1.50;;
78402;SDS011;67687;43.508;1.504;2024-02-26T04:32:02;7.32;;;1.55;;
78402;SDS011;67687;43.508;1.504;2024-02-26T04:34:29;6.45;;;1.33;;
78402;SDS011;67687;43.508;1.504;2024-02-26T04:36:56;7.78;;;1.17;;
78402;SDS011;67687;43.508;1.504;2024-02-26T04:39:24;7.85;;;1.00;;
78402;SDS011;67687;43.508;1.504;2024-02-26T04:41:51;6.80;;;1.10;;
78402;SDS011;67687;43.508;1.504;2024-02-26T04:44:17;6.90;;;0.85;;
78402;SDS011;67687;43.508;1.504;2024-02-26T04:46:44;4.63;;;0.77;;
78402;SDS011;67687;43.508;1.504;2024-02-26T04:49:10;5.10;;;0.70;;
78402;SDS011;67687;43.508;1.504;2024-02-26T04:51:36;7.18;;;0.82;;
78402;SDS011;67687;43.508;1.504;2024-02-26T04:54:03;6.67;;;0.90;;
78402;SDS011;67687;43.508;1.504;2024-02-26T04:56:31;5.20;;;0.98;;
78402;SDS011;67687;43.508;1.504;2024-02-26T04:58:57;5.25;;;0.77;;
78402;SDS011;67687;43.508;1.504;2024-02-26T05:01:24;4.30;;;1.15;;
78402;SDS011;67687;43.508;1.504;2024-02-26T05:03:50;5.75;;;1.52;;
78402;SDS011;67687;43.508;1.504;2024-02-26T05:06:17;5.83;;;1.17;;
78402;SDS011;67687;43.508;1.504;2024-02-26T05:08:43;3.78;;;0.60;;
78402;SDS011;67687;43.508;1.504;2024-02-26T05:11:11;3.40;;;0.47;;
78402;SDS011;67687;43.508;1.504;2024-02-26T05:13:38;4.47;;;0.70;;
78402;SDS011;67687;43.508;1.504;2024-02-26T05:16:05;7.25;;;1.10;;
78402;SDS011;67687;43.508;1.504;2024-02-26T05:18:32;7.30;;;1.07;;
78402;SDS011;67687;43.508;1.504;2024-02-26T05:20:58;4.82;;;0.80;;
78402;SDS011;67687;43.508;1.504;2024-02-26T05:23:25;4.43;;;0.80;;
78402;SDS011;67687;43.508;1.504;2024-02-26T05:25:52;4.72;;;0.60;;
78402;SDS011;67687;43.508;1.504;2024-02-26T05:28:18;8.60;;;1.60;;
78402;SDS011;67687;43.508;1.504;2024-02-26T05:30:47;4.30;;;0.70;;
78402;SDS011;67687;43.508;1.504;2024-02-26T05:33:13;3.42;;;0.73;;
78402;SDS011;67687;43.508;1.504;2024-02-26T05:35:39;7.65;;;0.73;;
78402;SDS011;67687;43.508;1.504;2024-02-26T05:38:06;7.03;;;0.85;;
78402;SDS011;67687;43.508;1.504;2024-02-26T05:40:32;4.30;;;1.05;;
78402;SDS011;67687;43.508;1.504;2024-02-26T05:42:59;3.93;;;0.60;;
78402;SDS011;67687;43.508;1.504;2024-02-26T05:45:25;4.65;;;0.77;;
78402;SDS011;67687;43.508;1.504;2024-02-26T05:47:53;5.05;;;0.90;;
78402;SDS011;67687;43.508;1.504;2024-02-26T05:50:20;5.40;;;0.80;;
78402;SDS011;67687;43.508;1.504;2024-02-26T05:52:46;4.55;;;0.75;;
78402;SDS011;67687;43.508;1.504;2024-02-26T05:55:13;5.43;;;0.80;;
78402;SDS011;67687;43.508;1.504;2024-02-26T05:57:40;7.63;;;1.85;;
78402;SDS011;67687;43.508;1.504;2024-02-26T06:00:07;4.40;;;0.88;;
78402;SDS011;67687;43.508;1.504;2024-02-26T06:02:34;7.82;;;1.08;;
78402;SDS011;67687;43.508;1.504;2024-02-26T06:05:02;11.43;;;3.97;;
78402;SDS011;67687;43.508;1.504;2024-02-26T06:07:28;14.17;;;3.80;;
78402;SDS011;67687;43.508;1.504;2024-02-26T06:09:55;6.47;;;2.67;;
78402;SDS011;67687;43.508;1.504;2024-02-26T06:12:21;3.83;;;1.23;;
78402;SDS011;67687;43.508;1.504;2024-02-26T06:14:48;4.68;;;1.13;;
78402;SDS011;67687;43.508;1.504;2024-02-26T06:17:14;5.38;;;2.20;;
78402;SDS011;67687;43.508;1.504;2024-02-26T06:19:41;4.33;;;0.80;;
78402;SDS011;67687;43.508;1.504;2024-02-26T06:22:09;14.48;;;11.23;;
78402;SDS011;67687;43.508;1.504;2024-02-26T06:24:35;9.10;;;3.78;;
78402;SDS011;67687;43.508;1.504;2024-02-26T06:27:02;4.82;;;1.77;;
78402;SDS011;67687;43.508;1.504;2024-02-26T06:29:29;3.10;;;0.63;;
78402;SDS011;67687;43.508;1.504;2024-02-26T06:31:55;4.17;;;1.23;;
78402;SDS011;67687;43.508;1.504;2024-02-26T06:34:22;4.45;;;1.65;;
78402;SDS011;67687;43.508;1.504;2024-02-26T06:36:48;2.30;;;0.70;;
78402;SDS011;67687;43.508;1.504;2024-02-26T06:39:16;3.60;;;0.95;;
78402;SDS011;67687;43.508;1.504;2024-02-26T06:41:43;3.78;;;0.80;;
78402;SDS011;67687;43.508;1.504;2024-02-26T06:44:11;5.20;;;0.80;;
78402;SDS011;67687;43.508;1.504;2024-02-26T06:46:38;3.53;;;0.68;;
78402;SDS011;67687;43.508;1.504;2024-02-26T06:49:04;2.38;;;0.52;;
78402;SDS011;67687;43.508;1.504;2024-02-26T06:51:31;4.00;;;0.80;;
78402;SDS011;67687;43.508;1.504;2024-02-26T06:53:57;2.67;;;0.60;;
78402;SDS011;67687;43.508;1.504;2024-02-26T06:56:25;3.63;;;1.03;;
78402;SDS011;67687;43.508;1.504;2024-02-26T06:58:52;3.17;;;0.50;;
78402;SDS011;67687;43.508;1.504;2024-02-26T07:01:18;32.88;;;14.00;;
78402;SDS011;67687;43.508;1.504;2024-02-26T07:03:44;3.13;;;0.70;;
78402;SDS011;67687;43.508;1.504;2024-02-26T07:06:11;3.35;;;0.80;;
78402;SDS011;67687;43.508;1.504;2024-02-26T07:08:38;12.10;;;4.60;;
78402;SDS011;67687;43.508;1.504;2024-02-26T07:11:06;3.63;;;0.80;;
78402;SDS011;67687;43.508;1.504;2024-02-26T07:13:34;5.63;;;0.70;;
78402;SDS011;67687;43.508;1.504;2024-02-26T07:16:01;3.80;;;0.70;;
78402;SDS011;67687;43.508;1.504;2024-02-26T07:18:27;4.80;;;0.90;;
78402;SDS011;67687;43.508;1.504;2024-02-26T07:20:54;4.40;;;0.70;;
78402;SDS011;67687;43.508;1.504;2024-02-26T07:23:20;8.60;;;2.72;;
78402;SDS011;67687;43.508;1.504;2024-02-26T07:25:47;5.70;;;0.90;;
78402;SDS011;67687;43.508;1.504;2024-02-26T07:28:15;6.53;;;1.30;;
78402;SDS011;67687;43.508;1.504;2024-02-26T07:30:42;4.35;;;1.08;;
78402;SDS011;67687;43.508;1.504;2024-02-26T07:33:09;3.47;;;0.80;;
78402;SDS011;67687;43.508;1.504;2024-02-26T07:35:35;3.15;;;0.65;;
78402;SDS011;67687;43.508;1.504;2024-02-26T07:38:03;6.60;;;0.77;;
78402;SDS011;67687;43.508;1.504;2024-02-26T07:40:30;4.07;;;0.60;;
78402;SDS011;67687;43.508;1.504;2024-02-26T07:42:56;5.00;;;0.98;;
78402;SDS011;67687;43.508;1.504;2024-02-26T07:45:23;6.40;;;1.73;;
78402;SDS011;67687;43.508;1.504;2024-02-26T07:47:51;3.60;;;0.55;;
78402;SDS011;67687;43.508;1.504;2024-02-26T07:50:17;3.83;;;1.05;;
78402;SDS011;67687;43.508;1.504;2024-02-26T07:52:44;4.85;;;0.65;;
78402;SDS011;67687;43.508;1.504;2024-02-26T07:55:11;4.43;;;0.65;;
78402;SDS011;67687;43.508;1.504;2024-02-26T07:57:41;5.97;;;0.80;;
78402;SDS011;67687;43.508;1.504;2024-02-26T08:00:08;2.50;;;0.40;;
78402;SDS011;67687;43.508;1.504;2024-02-26T08:02:34;4.68;;;0.70;;
78402;SDS011;67687;43.508;1.504;2024-02-26T08:05:02;3.03;;;0.52;;
78402;SDS011;67687;43.508;1.504;2024-02-26T08:07:29;5.38;;;0.90;;
78402;SDS011;67687;43.508;1.504;2024-02-26T08:09:56;2.97;;;0.50;;
78402;SDS011;67687;43.508;1.504;2024-02-26T08:12:22;4.45;;;0.75;;
78402;SDS011;67687;43.508;1.504;2024-02-26T08:14:49;4.05;;;0.85;;
78402;SDS011;67687;43.508;1.504;2024-02-26T08:17:16;4.75;;;0.98;;
78402;SDS011;67687;43.508;1.504;2024-02-26T08:19:42;3.63;;;1.00;;
78402;SDS011;67687;43.508;1.504;2024-02-26T08:22:10;4.17;;;0.70;;
78402;SDS011;67687;43.508;1.504;2024-02-26T08:24:41;4.88;;;0.80;;
78402;SDS011;67687;43.508;1.504;2024-02-26T08:27:07;3.92;;;0.60;;
78402;SDS011;67687;43.508;1.504;2024-02-26T08:29:34;6.03;;;0.70;;
78402;SDS011;67687;43.508;1.504;2024-02-26T08:32:00;5.93;;;0.85;;
78402;SDS011;67687;43.508;1.504;2024-02-26T08:34:27;5.63;;;0.70;;
78402;SDS011;67687;43.508;1.504;2024-02-26T08:36:53;5.35;;;0.60;;
78402;SDS011;67687;43.508;1.504;2024-02-26T08:39:21;4.90;;;0.90;;
78402;SDS011;67687;43.508;1.504;2024-02-26T08:41:48;4.35;;;0.60;;
78402;SDS011;67687;43.508;1.504;2024-02-26T08:44:15;4.13;;;0.98;;
78402;SDS011;67687;43.508;1.504;2024-02-26T08:46:41;4.77;;;0.70;;
78402;SDS011;67687;43.508;1.504;2024-02-26T08:49:07;6.90;;;1.48;;
78402;SDS011;67687;43.508;1.504;2024-02-26T08:51:34;5.43;;;0.90;;
78402;SDS011;67687;43.508;1.504;2024-02-26T08:54:01;7.70;;;1.02;;
78402;SDS011;67687;43.508;1.504;2024-02-26T08:56:29;6.60;;;1.13;;
78402;SDS011;67687;43.508;1.504;2024-02-26T08:58:55;6.00;;;1.10;;
78402;SDS011;67687;43.508;1.504;2024-02-26T09:01:22;5.68;;;0.90;;
78402;SDS011;67687;43.508;1.504;2024-02-26T09:03:49;5.32;;;0.90;;
78402;SDS011;67687;43.508;1.504;2024-02-26T09:06:16;5.00;;;0.88;;
78402;SDS011;67687;43.508;1.504;2024-02-26T09:08:42;5.55;;;0.90;;
78402;SDS011;67687;43.508;1.504;2024-02-26T09:11:09;6.77;;;1.07;;
78402;SDS011;67687;43.508;1.504;2024-02-26T09:13:37;6.05;;;1.48;;
78402;SDS011;67687;43.508;1.504;2024-02-26T09:16:04;4.25;;;0.95;;
78402;SDS011;67687;43.508;1.504;2024-02-26T09:18:31;4.35;;;0.68;;
78402;SDS011;67687;43.508;1.504;2024-02-26T09:20:57;7.38;;;1.20;;
78402;SDS011;67687;43.508;1.504;2024-02-26T09:23:24;4.37;;;0.80;;
78402;SDS011;67687;43.508;1.504;2024-02-26T09:25:50;5.90;;;1.00;;
78402;SDS011;67687;43.508;1.504;2024-02-26T09:28:17;6.28;;;0.80;;
78402;SDS011;67687;43.508;1.504;2024-02-26T09:30:44;5.10;;;0.90;;
78402;SDS011;67687;43.508;1.504;2024-02-26T09:33:13;6.25;;;1.20;;
78402;SDS011;67687;43.508;1.504;2024-02-26T09:35:39;4.00;;;0.60;;
78402;SDS011;67687;43.508;1.504;2024-02-26T09:38:06;5.55;;;0.73;;
78402;SDS011;67687;43.508;1.504;2024-02-26T09:40:32;3.67;;;0.80;;
78402;SDS011;67687;43.508;1.504;2024-02-26T09:42:59;4.68;;;0.77;;
78402;SDS011;67687;43.508;1.504;2024-02-26T09:45:26;5.00;;;0.93;;
78402;SDS011;67687;43.508;1.504;2024-02-26T09:47:55;6.43;;;0.80;;
78402;SDS011;67687;43.508;1.504;2024-02-26T09:50:22;5.82;;;0.93;;
78402;SDS011;67687;43.508;1.504;2024-02-26T09:52:49;5.80;;;0.88;;
78402;SDS011;67687;43.508;1.504;2024-02-26T09:55:15;4.43;;;0.80;;
78402;SDS011;67687;43.508;1.504;2024-02-26T09:57:44;3.70;;;0.70;;
78402;SDS011;67687;43.508;1.504;2024-02-26T10:00:11;5.43;;;0.70;;
78402;SDS011;67687;43.508;1.504;2024-02-26T10:02:40;2.92;;;0.73;;
78402;SDS011;67687;43.508;1.504;2024-02-26T10:05:10;3.95;;;0.70;;
78402;SDS011;67687;43.508;1.504;2024-02-26T10:07:36;2.70;;;0.60;;
78402;SDS011;67687;43.508;1.504;2024-02-26T10:10:03;6.47;;;0.77;;
78402;SDS011;67687;43.508;1.504;2024-02-26T10:12:30;3.97;;;0.70;;
78402;SDS011;67687;43.508;1.504;2024-02-26T10:14:57;3.83;;;0.50;;
78402;SDS011;67687;43.508;1.504;2024-02-26T10:17:24;4.35;;;0.75;;
78402;SDS011;67687;43.508;1.504;2024-02-26T10:19:51;2.95;;;0.40;;
78402;SDS011;67687;43.508;1.504;2024-02-26T10:22:22;3.63;;;0.60;;
78402;SDS011;67687;43.508;1.504;2024-02-26T10:24:49;3.70;;;0.80;;
78402;SDS011;67687;43.508;1.504;2024-02-26T10:27:16;5.22;;;0.70;;
78402;SDS011;67687;43.508;1.504;2024-02-26T10:29:42;3.67;;;0.73;;
78402;SDS011;67687;43.508;1.504;2024-02-26T10:32:09;3.75;;;0.80;;
78402;SDS011;67687;43.508;1.504;2024-02-26T10:34:38;4.07;;;0.77;;
78402;SDS011;67687;43.508;1.504;2024-02-26T10:37:06;3.63;;;0.60;;
78402;SDS011;67687;43.508;1.504;2024-02-26T10:39:35;3.25;;;0.57;;
78402;SDS011;67687;43.508;1.504;2024-02-26T10:42:02;4.00;;;0.60;;
78402;SDS011;67687;43.508;1.504;2024-02-26T10:44:34;4.70;;;0.52;;
78402;SDS011;67687;43.508;1.504;2024-02-26T10:47:01;3.65;;;0.73;;
78402;SDS011;67687;43.508;1.504;2024-02-26T10:49:27;4.23;;;0.40;;
78402;SDS011;67687;43.508;1.504;2024-02-26T10:51:55;4.68;;;0.57;;
78402;SDS011;67687;43.508;1.504;2024-02-26T10:54:22;3.50;;;0.70;;
78402;SDS011;67687;43.508;1.504;2024-02-26T10:56:51;3.83;;;0.60;;
78402;SDS011;67687;43.508;1.504;2024-02-26T10:59:18;6.60;;;0.60;;
78402;SDS011;67687;43.508;1.504;2024-02-26T11:01:45;4.40;;;0.60;;
78402;SDS011;67687;43.508;1.504;2024-02-26T11:04:14;4.35;;;0.50;;
78402;SDS011;67687;43.508;1.504;2024-02-26T11:06:41;3.45;;;0.70;;
78402;SDS011;67687;43.508;1.504;2024-02-26T11:09:08;3.10;;;0.70;;
78402;SDS011;67687;43.508;1.504;2024-02-26T11:11:38;3.45;;;0.68;;
78402;SDS011;67687;43.508;1.504;2024-02-26T11:14:06;3.10;;;0.63;;
78402;SDS011;67687;43.508;1.504;2024-02-26T11:16:34;4.28;;;0.70;;
78402;SDS011;67687;43.508;1.504;2024-02-26T11:19:01;3.15;;;0.73;;
78402;SDS011;67687;43.508;1.504;2024-02-26T11:21:28;4.75;;;0.80;;
78402;SDS011;67687;43.508;1.504;2024-02-26T11:24:04;4.40;;;0.73;;
78402;SDS011;67687;43.508;1.504;2024-02-26T11:26:30;3.53;;;0.60;;
78402;SDS011;67687;43.508;1.504;2024-02-26T11:28:57;5.00;;;0.68;;
78402;SDS011;67687;43.508;1.504;2024-02-26T11:31:25;2.72;;;0.63;;
78402;SDS011;67687;43.508;1.504;2024-02-26T11:33:52;3.15;;;0.70;;
78402;SDS011;67687;43.508;1.504;2024-02-26T11:36:19;2.90;;;0.55;;
78402;SDS011;67687;43.508;1.504;2024-02-26T11:38:46;2.53;;;0.50;;
78402;SDS011;67687;43.508;1.504;2024-02-26T11:41:16;4.25;;;0.55;;
78402;SDS011;67687;43.508;1.504;2024-02-26T11:43:49;3.50;;;0.73;;
78402;SDS011;67687;43.508;1.504;2024-02-26T11:46:28;3.00;;;0.57;;
78402;SDS011;67687;43.508;1.504;2024-02-26T11:48:56;3.88;;;0.57;;
78402;SDS011;67687;43.508;1.504;2024-02-26T11:51:25;3.30;;;0.60;;
78402;SDS011;67687;43.508;1.504;2024-02-26T11:53:51;2.80;;;0.70;;
78402;SDS011;67687;43.508;1.504;2024-02-26T11:56:21;3.67;;;0.60;;
78402;SDS011;67687;43.508;1.504;2024-02-26T11:58:48;5.03;;;0.50;;
78402;SDS011;67687;43.508;1.504;2024-02-26T12:04:06;2.60;;;0.60;;
78402;SDS011;67687;43.508;1.504;2024-02-26T12:06:43;3.70;;;0.60;;
78402;SDS011;67687;43.508;1.504;2024-02-26T12:09:10;3.00;;;0.55;;
78402;SDS011;67687;43.508;1.504;2024-02-26T12:11:38;5.05;;;0.60;;
78402;SDS011;67687;43.508;1.504;2024-02-26T12:14:05;3.30;;;0.60;;
78402;SDS011;67687;43.508;1.504;2024-02-26T12:16:35;4.10;;;0.67;;
78402;SDS011;67687;43.508;1.504;2024-02-26T12:19:02;2.35;;;0.50;;
78402;SDS011;67687;43.508;1.504;2024-02-26T12:21:31;4.10;;;0.50;;
78402;SDS011;67687;43.508;1.504;2024-02-26T12:24:06;2.47;;;0.55;;
78402;SDS011;67687;43.508;1.504;2024-02-26T12:26:33;3.65;;;0.60;;
78402;SDS011;67687;43.508;1.504;2024-02-26T12:28:59;3.43;;;0.60;;
78402;SDS011;67687;43.508;1.504;2024-02-26T12:31:26;2.60;;;0.60;;
78402;SDS011;67687;43.508;1.504;2024-02-26T12:33:53;2.33;;;0.60;;
78402;SDS011;67687;43.508;1.504;2024-02-26T12:36:20;2.83;;;0.60;;
78402;SDS011;67687;43.508;1.504;2024-02-26T12:38:48;4.47;;;0.65;;
78402;SDS011;67687;43.508;1.504;2024-02-26T12:41:16;5.00;;;0.63;;
78402;SDS011;67687;43.508;1.504;2024-02-26T12:43:42;2.95;;;0.40;;
78402;SDS011;67687;43.508;1.504;2024-02-26T12:46:09;2.15;;;0.52;;
78402;SDS011;67687;43.508;1.504;2024-02-26T12:48:36;2.47;;;0.50;;
78402;SDS011;67687;43.508;1.504;2024-02-26T12:51:03;2.88;;;0.60;;
78402;SDS011;67687;43.508;1.504;2024-02-26T12:53:30;2.50;;;0.50;;
78402;SDS011;67687;43.508;1.504;2024-02-26T12:55:58;1.95;;;0.40;;
78402;SDS011;67687;43.508;1.504;2024-02-26T12:58:24;2.55;;;0.60;;
78402;SDS011;67687;43.508;1.504;2024-02-26T13:00:53;2.08;;;0.50;;
78402;SDS011;67687;43.508;1.504;2024-02-26T13:03:19;2.25;;;0.50;;
78402;SDS011;67687;43.508;1.504;2024-02-26T13:05:46;3.00;;;0.80;;
78402;SDS011;67687;43.508;1.504;2024-02-26T13:08:16;4.38;;;0.60;;
78402;SDS011;67687;43.508;1.504;2024-02-26T13:10:43;3.67;;;0.40;;
78402;SDS011;67687;43.508;1.504;2024-02-26T13:13:14;2.30;;;0.50;;
78402;SDS011;67687;43.508;1.504;2024-02-26T13:15:41;2.30;;;0.60;;
78402;SDS011;67687;43.508;1.504;2024-02-26T13:18:11;2.50;;;0.50;;
78402;SDS011;67687;43.508;1.504;2024-02-26T13:20:37;3.15;;;0.90;;
78402;SDS011;67687;43.508;1.504;2024-02-26T13:23:06;2.80;;;0.60;;
78402;SDS011;67687;43.508;1.504;2024-02-26T13:25:32;3.92;;;0.60;;
78402;SDS011;67687;43.508;1.504;2024-02-26T13:28:12;4.35;;;0.80;;
78402;SDS011;67687;43.508;1.504;2024-02-26T13:30:42;2.37;;;0.50;;
78402;SDS011;67687;43.508;1.504;2024-02-26T13:33:16;2.83;;;0.55;;
78402;SDS011;67687;43.508;1.504;2024-02-26T13:35:42;1.92;;;0.47;;
78402;SDS011;67687;43.508;1.504;2024-02-26T13:38:09;3.63;;;0.55;;
78402;SDS011;67687;43.508;1.504;2024-02-26T13:40:36;2.17;;;0.40;;
78402;SDS011;67687;43.508;1.504;2024-02-26T13:43:03;3.10;;;0.50;;
78402;SDS011;67687;43.508;1.504;2024-02-26T13:45:29;2.83;;;0.50;;
78402;SDS011;67687;43.508;1.504;2024-02-26T13:48:01;3.05;;;0.60;;
78402;SDS011;67687;43.508;1.504;2024-02-26T13:50:28;2.63;;;0.40;;
78402;SDS011;67687;43.508;1.504;2024-02-26T13:52:54;2.17;;;0.50;;
78402;SDS011;67687;43.508;1.504;2024-02-26T13:55:22;1.93;;;0.50;;
78402;SDS011;67687;43.508;1.504;2024-02-26T13:57:51;2.70;;;0.50;;
78402;SDS011;67687;43.508;1.504;2024-02-26T14:00:19;2.78;;;0.50;;
78402;SDS011;67687;43.508;1.504;2024-02-26T14:02:45;4.60;;;0.93;;
78402;SDS011;67687;43.508;1.504;2024-02-26T14:05:13;2.00;;;0.50;;
78402;SDS011;67687;43.508;1.504;2024-02-26T14:07:40;3.47;;;0.60;;
78402;SDS011;67687;43.508;1.504;2024-02-26T14:10:07;2.85;;;0.52;;
78402;SDS011;67687;43.508;1.504;2024-02-26T14:12:33;3.05;;;0.50;;
78402;SDS011;67687;43.508;1.504;2024-02-26T14:15:00;2.88;;;0.50;;
78402;SDS011;67687;43.508;1.504;2024-02-26T14:17:29;2.42;;;0.55;;
78402;SDS011;67687;43.508;1.504;2024-02-26T14:19:56;2.50;;;0.53;;
78402;SDS011;67687;43.508;1.504;2024-02-26T14:22:24;2.40;;;0.47;;
78402;SDS011;67687;43.508;1.504;2024-02-26T14:24:52;2.20;;;0.50;;
78402;SDS011;67687;43.508;1.504;2024-02-26T14:27:18;3.28;;;0.40;;
78402;SDS011;67687;43.508;1.504;2024-02-26T14:29:47;3.13;;;0.50;;
78402;SDS011;67687;43.508;1.504;2024-02-26T14:32:13;2.77;;;0.60;;
78402;SDS011;67687;43.508;1.504;2024-02-26T14:34:40;3.03;;;0.40;;
78402;SDS011;67687;43.508;1.504;2024-02-26T14:37:06;1.77;;;0.43;;
78402;SDS011;67687;43.508;1.504;2024-02-26T14:39:34;2.17;;;0.47;;
78402;SDS011;67687;43.508;1.504;2024-02-26T14:42:01;2.63;;;0.50;;
78402;SDS011;67687;43.508;1.504;2024-02-26T14:44:27;3.00;;;0.50;;
78402;SDS011;67687;43.508;1.504;2024-02-26T14:46:54;2.78;;;0.40;;